createdAt,value
2017-03-13T00:00:10.398Z,3.84
2017-03-13T00:00:50.968Z,3.83
2017-03-13T00:01:31.555Z,3.8
2017-03-13T00:02:12.196Z,3.8
2017-03-13T00:02:52.783Z,3.78
2017-03-13T00:03:33.366Z,3.78
2017-03-13T00:04:13.973Z,3.8
2017-03-13T00:04:54.565Z,3.8
2017-03-13T00:05:35.177Z,3.78
2017-03-13T00:06:15.741Z,3.8
2017-03-13T00:06:56.314Z,3.81
2017-03-13T00:07:36.904Z,3.77
2017-03-13T00:08:17.519Z,3.76
2017-03-13T00:08:58.108Z,3.78
2017-03-13T00:09:38.689Z,3.78
2017-03-13T00:10:19.254Z,3.78
2017-03-13T00:10:59.829Z,3.8
2017-03-13T00:11:40.419Z,3.74
2017-03-13T00:12:20.985Z,3.76
2017-03-13T00:13:01.578Z,3.81
2017-03-13T00:13:42.175Z,3.77
2017-03-13T00:14:22.772Z,3.78
2017-03-13T00:15:03.370Z,3.8
2017-03-13T00:15:43.971Z,3.81
2017-03-13T00:16:24.582Z,3.83
2017-03-13T00:17:05.150Z,3.8
2017-03-13T00:17:45.735Z,3.81
2017-03-13T00:18:26.352Z,3.8
2017-03-13T00:19:06.940Z,3.81
2017-03-13T00:19:47.563Z,3.81
2017-03-13T00:20:28.149Z,3.81
2017-03-13T00:21:08.760Z,3.84
2017-03-13T00:21:49.354Z,3.81
2017-03-13T00:22:29.970Z,3.78
2017-03-13T00:23:10.550Z,3.91
2017-03-13T00:23:51.170Z,3.86
2017-03-13T00:24:31.769Z,3.88
2017-03-13T00:25:12.345Z,3.92
2017-03-13T00:25:52.940Z,3.88
2017-03-13T00:26:33.544Z,3.86
2017-03-13T00:27:14.129Z,3.88
2017-03-13T00:27:54.704Z,3.86
2017-03-13T00:28:35.268Z,3.86
2017-03-13T00:29:15.864Z,3.87
2017-03-13T00:29:56.499Z,3.91
2017-03-13T00:30:37.062Z,3.88
2017-03-13T00:31:17.637Z,3.92
2017-03-13T00:31:58.232Z,3.83
2017-03-13T00:32:38.862Z,3.88
2017-03-13T00:33:19.458Z,3.77
2017-03-13T00:34:00.018Z,3.83
2017-03-13T00:34:40.603Z,3.78
2017-03-13T00:35:21.191Z,3.77
2017-03-13T00:36:01.801Z,3.86
2017-03-13T00:36:42.414Z,3.86
2017-03-13T00:37:23.022Z,3.81
2017-03-13T00:38:03.623Z,3.81
2017-03-13T00:38:44.210Z,3.83
2017-03-13T00:39:24.790Z,3.65
2017-03-13T00:40:05.377Z,3.77
2017-03-13T00:40:45.949Z,3.77
2017-03-13T00:41:26.530Z,3.78
2017-03-13T00:42:07.118Z,3.77
2017-03-13T00:42:47.708Z,3.76
2017-03-13T00:43:28.282Z,3.76
2017-03-13T00:44:08.870Z,3.74
2017-03-13T00:44:49.448Z,3.76
2017-03-13T00:45:30.034Z,3.81
2017-03-13T00:46:10.626Z,3.78
2017-03-13T00:46:51.219Z,3.76
2017-03-13T00:47:31.790Z,3.76
2017-03-13T00:48:12.414Z,3.76
2017-03-13T00:48:53.001Z,3.73
2017-03-13T00:49:33.584Z,3.73
2017-03-13T00:50:14.149Z,3.77
2017-03-13T00:50:54.715Z,3.7
2017-03-13T00:51:35.276Z,3.74
2017-03-13T00:52:15.862Z,3.68
2017-03-13T00:52:56.441Z,3.73
2017-03-13T00:53:37.015Z,3.69
2017-03-13T00:54:17.610Z,3.66
2017-03-13T00:54:58.164Z,3.69
2017-03-13T00:55:38.744Z,3.69
2017-03-13T00:56:19.349Z,3.68
2017-03-13T00:56:59.933Z,3.65
2017-03-13T00:57:40.524Z,3.7
2017-03-13T00:58:21.142Z,3.7
2017-03-13T00:59:01.708Z,3.7
2017-03-13T00:59:42.301Z,3.7
2017-03-13T01:00:22.882Z,3.69
2017-03-13T01:01:03.482Z,3.69
2017-03-13T01:01:44.077Z,3.63
2017-03-13T01:02:24.706Z,3.65
2017-03-13T01:03:05.391Z,3.65
2017-03-13T01:03:45.985Z,3.7
2017-03-13T01:04:26.593Z,3.65
2017-03-13T01:05:07.215Z,3.65
2017-03-13T01:05:47.785Z,3.7
2017-03-13T01:06:28.391Z,3.66
2017-03-13T01:07:09.012Z,3.69
2017-03-13T01:07:49.596Z,3.59
2017-03-13T01:08:30.227Z,3.62
2017-03-13T01:09:10.821Z,3.59
2017-03-13T01:09:51.417Z,3.62
2017-03-13T01:10:32.053Z,3.62
2017-03-13T01:11:12.600Z,3.58
2017-03-13T01:11:53.191Z,3.58
2017-03-13T01:12:33.784Z,3.63
2017-03-13T01:13:14.373Z,3.69
2017-03-13T01:13:55.049Z,3.63
2017-03-13T01:14:35.662Z,3.6
2017-03-13T01:15:16.290Z,3.58
2017-03-13T01:15:56.888Z,3.7
2017-03-13T01:16:37.489Z,3.58
2017-03-13T01:17:18.061Z,3.62
2017-03-13T01:17:58.655Z,3.63
2017-03-13T01:18:39.256Z,3.59
2017-03-13T01:19:19.847Z,3.59
2017-03-13T01:20:00.460Z,3.6
2017-03-13T01:20:41.046Z,3.65
2017-03-13T01:21:21.656Z,3.62
2017-03-13T01:22:02.254Z,3.59
2017-03-13T01:22:42.854Z,3.63
2017-03-13T01:23:23.421Z,3.65
2017-03-13T01:24:03.998Z,3.73
2017-03-13T01:24:44.586Z,3.68
2017-03-13T01:25:25.180Z,3.65
2017-03-13T01:26:05.769Z,3.69
2017-03-13T01:26:46.362Z,3.6
2017-03-13T01:27:26.955Z,3.65
2017-03-13T01:28:07.577Z,3.65
2017-03-13T01:28:48.160Z,3.68
2017-03-13T01:29:28.788Z,3.6
2017-03-13T01:30:09.346Z,3.66
2017-03-13T01:30:49.913Z,3.66
2017-03-13T01:31:30.530Z,3.68
2017-03-13T01:32:11.132Z,3.74
2017-03-13T01:32:51.715Z,3.69
2017-03-13T01:33:32.330Z,3.69
2017-03-13T01:34:12.949Z,3.66
2017-03-13T01:34:53.531Z,3.73
2017-03-13T01:35:34.177Z,3.76
2017-03-13T01:36:14.801Z,3.8
2017-03-13T01:36:55.391Z,3.8
2017-03-13T01:37:36.005Z,3.76
2017-03-13T01:38:16.605Z,3.78
2017-03-13T01:38:57.235Z,3.8
2017-03-13T01:39:37.787Z,3.78
2017-03-13T01:40:18.403Z,3.74
2017-03-13T01:40:59.011Z,3.83
2017-03-13T01:41:39.611Z,3.84
2017-03-13T01:42:20.217Z,3.76
2017-03-13T01:43:00.816Z,3.77
2017-03-13T01:43:41.414Z,3.76
2017-03-13T01:44:22.022Z,3.76
2017-03-13T01:45:02.609Z,3.74
2017-03-13T01:45:43.198Z,3.74
2017-03-13T01:46:23.787Z,3.81
2017-03-13T01:47:04.421Z,3.76
2017-03-13T01:47:45.025Z,3.78
2017-03-13T01:48:25.607Z,3.76
2017-03-13T01:49:06.217Z,3.74
2017-03-13T01:49:46.832Z,3.77
2017-03-13T01:50:27.418Z,3.78
2017-03-13T01:51:08.010Z,3.73
2017-03-13T01:51:48.628Z,3.73
2017-03-13T01:52:29.244Z,3.76
2017-03-13T01:53:09.840Z,3.81
2017-03-13T01:53:50.537Z,3.77
2017-03-13T01:54:31.150Z,3.73
2017-03-13T01:55:11.727Z,3.74
2017-03-13T01:55:52.324Z,3.76
2017-03-13T01:56:33.083Z,3.76
2017-03-13T01:57:13.709Z,3.78
2017-03-13T01:57:54.301Z,3.74
2017-03-13T01:58:34.977Z,3.8
2017-03-13T01:59:15.617Z,3.81
2017-03-13T01:59:56.207Z,3.7
2017-03-13T02:00:36.827Z,3.76
2017-03-13T02:01:17.422Z,3.77
2017-03-13T02:01:58.025Z,3.73
2017-03-13T02:02:38.594Z,3.76
2017-03-13T02:03:19.174Z,3.69
2017-03-13T02:03:59.775Z,3.7
2017-03-13T02:04:40.354Z,3.65
2017-03-13T02:05:20.993Z,3.66
2017-03-13T02:06:01.571Z,3.6
2017-03-13T02:06:42.162Z,3.62
2017-03-13T02:07:22.788Z,3.6
2017-03-13T02:08:03.386Z,3.65
2017-03-13T02:08:43.986Z,3.62
2017-03-13T02:09:24.605Z,3.59
2017-03-13T02:10:05.194Z,3.56
2017-03-13T02:10:45.800Z,3.58
2017-03-13T02:11:26.479Z,3.62
2017-03-13T02:12:07.154Z,3.59
2017-03-13T02:12:47.741Z,3.6
2017-03-13T02:13:28.357Z,3.68
2017-03-13T02:14:08.950Z,3.65
2017-03-13T02:14:49.569Z,3.63
2017-03-13T02:15:30.208Z,3.65
2017-03-13T02:16:10.816Z,3.65
2017-03-13T02:16:51.428Z,3.73
2017-03-13T02:17:32.018Z,3.68
2017-03-13T02:18:12.620Z,3.66
2017-03-13T02:18:53.218Z,3.68
2017-03-13T02:19:33.852Z,3.73
2017-03-13T02:20:14.466Z,3.69
2017-03-13T02:20:55.076Z,3.77
2017-03-13T02:21:35.667Z,3.76
2017-03-13T02:22:16.284Z,3.7
2017-03-13T02:22:56.893Z,3.73
2017-03-13T02:23:37.486Z,3.7
2017-03-13T02:24:18.075Z,3.76
2017-03-13T02:24:58.663Z,3.78
2017-03-13T02:25:39.240Z,3.74
2017-03-13T02:26:19.846Z,3.77
2017-03-13T02:27:00.454Z,3.68
2017-03-13T02:27:41.059Z,3.74
2017-03-13T02:28:21.638Z,3.68
2017-03-13T02:29:02.234Z,3.68
2017-03-13T02:29:42.824Z,3.7
2017-03-13T02:30:23.412Z,3.7
2017-03-13T02:31:03.991Z,3.66
2017-03-13T02:31:44.582Z,3.68
2017-03-13T02:32:25.167Z,3.63
2017-03-13T02:33:05.754Z,3.73
2017-03-13T02:33:46.356Z,3.65
2017-03-13T02:34:26.958Z,3.68
2017-03-13T02:35:07.577Z,3.65
2017-03-13T02:35:48.158Z,3.7
2017-03-13T02:36:28.740Z,3.66
2017-03-13T02:37:09.344Z,3.68
2017-03-13T02:37:49.917Z,3.65
2017-03-13T02:38:30.531Z,3.76
2017-03-13T02:39:11.126Z,3.66
2017-03-13T02:39:51.694Z,3.7
2017-03-13T02:40:32.311Z,3.73
2017-03-13T02:41:12.899Z,3.68
2017-03-13T02:41:53.518Z,3.69
2017-03-13T02:42:34.111Z,3.73
2017-03-13T02:43:14.705Z,3.73
2017-03-13T02:43:55.296Z,3.63
2017-03-13T02:44:35.924Z,3.68
2017-03-13T02:45:16.511Z,3.65
2017-03-13T02:45:57.121Z,3.73
2017-03-13T02:46:37.706Z,3.73
2017-03-13T02:47:18.299Z,3.69
2017-03-13T02:47:58.882Z,3.68
2017-03-13T02:48:39.476Z,3.65
2017-03-13T02:49:20.114Z,3.69
2017-03-13T02:50:00.689Z,3.69
2017-03-13T02:50:41.283Z,3.66
2017-03-13T02:51:21.892Z,3.7
2017-03-13T02:52:02.482Z,3.69
2017-03-13T02:52:43.100Z,3.62
2017-03-13T02:53:23.709Z,3.66
2017-03-13T02:54:04.299Z,3.68
2017-03-13T02:54:44.916Z,3.68
2017-03-13T02:55:25.514Z,3.63
2017-03-13T02:56:06.112Z,3.65
2017-03-13T02:56:46.749Z,3.63
2017-03-13T02:57:27.380Z,3.63
2017-03-13T02:58:07.997Z,3.66
2017-03-13T02:58:48.665Z,3.59
2017-03-13T02:59:29.317Z,3.6
2017-03-13T03:00:09.872Z,3.59
2017-03-13T03:00:50.449Z,3.59
2017-03-13T03:01:31.059Z,3.62
2017-03-13T03:02:11.631Z,3.58
2017-03-13T03:02:52.216Z,3.65
2017-03-13T03:03:32.809Z,3.63
2017-03-13T03:04:13.392Z,3.62
2017-03-13T03:04:53.982Z,3.59
2017-03-13T03:05:34.561Z,3.62
2017-03-13T03:06:15.177Z,3.63
2017-03-13T03:06:55.834Z,3.62
2017-03-13T03:07:36.447Z,3.58
2017-03-13T03:08:17.039Z,3.6
2017-03-13T03:08:57.627Z,3.59
2017-03-13T03:09:38.276Z,3.59
2017-03-13T03:10:18.897Z,3.59
2017-03-13T03:10:59.482Z,3.6
2017-03-13T03:11:40.068Z,3.56
2017-03-13T03:12:20.706Z,3.6
2017-03-13T03:13:01.323Z,3.58
2017-03-13T03:13:41.907Z,3.53
2017-03-13T03:14:22.499Z,3.56
2017-03-13T03:15:03.066Z,3.58
2017-03-13T03:15:43.648Z,3.55
2017-03-13T03:16:24.232Z,3.5
2017-03-13T03:17:04.837Z,3.55
2017-03-13T03:17:45.409Z,3.48
2017-03-13T03:18:26.013Z,3.51
2017-03-13T03:19:06.612Z,3.56
2017-03-13T03:19:47.197Z,3.65
2017-03-13T03:20:27.799Z,3.62
2017-03-13T03:21:08.392Z,3.51
2017-03-13T03:21:48.987Z,3.58
2017-03-13T03:22:29.581Z,3.5
2017-03-13T03:23:10.179Z,3.66
2017-03-13T03:23:50.760Z,3.53
2017-03-13T03:24:31.387Z,3.51
2017-03-13T03:25:11.979Z,3.59
2017-03-13T03:25:52.575Z,3.63
2017-03-13T03:26:33.178Z,3.62
2017-03-13T03:27:13.781Z,3.59
2017-03-13T03:27:54.388Z,3.56
2017-03-13T03:28:34.978Z,3.5
2017-03-13T03:29:15.567Z,3.48
2017-03-13T03:29:56.183Z,3.48
2017-03-13T03:30:36.809Z,3.55
2017-03-13T03:31:17.404Z,3.5
2017-03-13T03:31:57.981Z,3.48
2017-03-13T03:32:38.568Z,3.56
2017-03-13T03:33:19.221Z,3.51
2017-03-13T03:33:59.820Z,3.53
2017-03-13T03:34:40.401Z,3.48
2017-03-13T03:35:20.997Z,3.4
2017-03-13T03:36:01.674Z,3.42
2017-03-13T03:36:42.252Z,3.4
2017-03-13T03:37:22.830Z,3.37
2017-03-13T03:38:03.413Z,3.37
2017-03-13T03:38:44.028Z,3.44
2017-03-13T03:39:24.668Z,3.36
2017-03-13T03:40:05.283Z,3.34
2017-03-13T03:40:45.870Z,3.42
2017-03-13T03:41:26.508Z,3.4
2017-03-13T03:42:07.125Z,3.37
2017-03-13T03:42:47.716Z,3.37
2017-03-13T03:43:28.304Z,3.34
2017-03-13T03:44:08.889Z,3.36
2017-03-13T03:44:49.468Z,3.31
2017-03-13T03:45:30.047Z,3.32
2017-03-13T03:46:10.685Z,3.36
2017-03-13T03:46:51.291Z,3.31
2017-03-13T03:47:31.882Z,3.36
2017-03-13T03:48:12.504Z,3.28
2017-03-13T03:48:53.122Z,3.25
2017-03-13T03:49:33.719Z,3.21
2017-03-13T03:50:14.298Z,3.22
2017-03-13T03:50:54.902Z,3.14
2017-03-13T03:51:35.509Z,3.22
2017-03-13T03:52:16.124Z,3.22
2017-03-13T03:52:56.698Z,3.16
2017-03-13T03:53:37.313Z,3.23
2017-03-13T03:54:17.903Z,3.21
2017-03-13T03:54:58.525Z,3.23
2017-03-13T03:55:39.148Z,3.14
2017-03-13T03:56:19.705Z,3.19
2017-03-13T03:57:00.398Z,3.13
2017-03-13T03:57:40.952Z,3.13
2017-03-13T03:58:21.588Z,3.14
2017-03-13T03:59:02.133Z,3.1
2017-03-13T03:59:42.737Z,3.05
2017-03-13T04:00:23.347Z,3.07
2017-03-13T04:01:03.927Z,3.11
2017-03-13T04:01:44.545Z,3.1
2017-03-13T04:02:25.124Z,3.14
2017-03-13T04:03:05.704Z,3.11
2017-03-13T04:03:46.305Z,3.08
2017-03-13T04:04:26.913Z,3.08
2017-03-13T04:05:07.506Z,3.04
2017-03-13T04:05:48.078Z,3.11
2017-03-13T04:06:28.678Z,3.1
2017-03-13T04:07:09.267Z,3.05
2017-03-13T04:07:49.877Z,3.04
2017-03-13T04:08:30.476Z,3.11
2017-03-13T04:09:11.066Z,3.08
2017-03-13T04:09:51.644Z,3.05
2017-03-13T04:10:32.223Z,3.07
2017-03-13T04:11:12.841Z,3.1
2017-03-13T04:11:53.431Z,3.08
2017-03-13T04:12:34.016Z,3.13
2017-03-13T04:13:14.592Z,3
2017-03-13T04:13:55.184Z,3.1
2017-03-13T04:14:35.795Z,3.01
2017-03-13T04:15:16.386Z,2.98
2017-03-13T04:15:56.980Z,2.93
2017-03-13T04:16:37.606Z,3.01
2017-03-13T04:17:18.195Z,3.1
2017-03-13T04:17:58.763Z,2.97
2017-03-13T04:18:39.383Z,3.1
2017-03-13T04:19:20.022Z,3.08
2017-03-13T04:20:00.675Z,3.13
2017-03-13T04:20:41.268Z,3.08
2017-03-13T04:21:21.887Z,3.13
2017-03-13T04:22:02.482Z,3.08
2017-03-13T04:22:43.056Z,3.08
2017-03-13T04:23:23.676Z,3.08
2017-03-13T04:24:04.267Z,3.01
2017-03-13T04:24:44.876Z,3
2017-03-13T04:25:25.440Z,3.01
2017-03-13T04:26:06.025Z,3.04
2017-03-13T04:26:46.623Z,2.95
2017-03-13T04:27:27.219Z,3
2017-03-13T04:28:07.828Z,2.98
2017-03-13T04:28:48.458Z,3.05
2017-03-13T04:29:29.092Z,2.98
2017-03-13T04:30:09.722Z,2.98
2017-03-13T04:30:50.305Z,2.97
2017-03-13T04:31:30.893Z,3.08
2017-03-13T04:32:11.471Z,3.07
2017-03-13T04:32:52.066Z,3.08
2017-03-13T04:33:32.724Z,3.13
2017-03-13T04:34:13.363Z,3.05
2017-03-13T04:34:53.986Z,3.11
2017-03-13T04:35:34.586Z,3.11
2017-03-13T04:36:15.198Z,3.05
2017-03-13T04:36:55.790Z,3.08
2017-03-13T04:37:36.393Z,3.08
2017-03-13T04:38:17.018Z,3.07
2017-03-13T04:38:57.609Z,3.1
2017-03-13T04:39:38.188Z,3.11
2017-03-13T04:40:18.804Z,3.1
2017-03-13T04:40:59.424Z,3.08
2017-03-13T04:41:40.019Z,3.08
2017-03-13T04:42:20.625Z,3.08
2017-03-13T04:43:01.249Z,3.07
2017-03-13T04:43:41.865Z,3.1
2017-03-13T04:44:22.482Z,3.07
2017-03-13T04:45:03.069Z,3.05
2017-03-13T04:45:43.681Z,3.08
2017-03-13T04:46:24.301Z,3.05
2017-03-13T04:47:04.888Z,3.11
2017-03-13T04:47:45.510Z,3.05
2017-03-13T04:48:26.130Z,3.03
2017-03-13T04:49:06.757Z,3.07
2017-03-13T04:49:47.398Z,3.08
2017-03-13T04:50:27.974Z,3.05
2017-03-13T04:51:08.593Z,3.08
2017-03-13T04:51:49.190Z,3.05
2017-03-13T04:52:29.778Z,3.05
2017-03-13T04:53:10.350Z,3.03
2017-03-13T04:53:50.923Z,3.1
2017-03-13T04:54:31.500Z,3.05
2017-03-13T04:55:12.066Z,3.04
2017-03-13T04:55:52.637Z,3.13
2017-03-13T04:56:33.229Z,3.13
2017-03-13T04:57:13.798Z,3.07
2017-03-13T04:57:54.382Z,3.16
2017-03-13T04:58:34.963Z,3.08
2017-03-13T04:59:15.539Z,3.07
2017-03-13T04:59:56.120Z,3.16
2017-03-13T05:00:36.682Z,3.07
2017-03-13T05:01:17.253Z,3.05
2017-03-13T05:01:57.862Z,3.1
2017-03-13T05:02:38.433Z,3.08
2017-03-13T05:03:19.048Z,3.07
2017-03-13T05:03:59.610Z,3.04
2017-03-13T05:04:40.186Z,3.01
2017-03-13T05:05:20.770Z,3.04
2017-03-13T05:06:01.338Z,3.01
2017-03-13T05:06:41.905Z,3.05
2017-03-13T05:07:22.476Z,3.1
2017-03-13T05:08:03.067Z,3.01
2017-03-13T05:08:43.627Z,3
2017-03-13T05:09:24.227Z,2.98
2017-03-13T05:10:04.786Z,3.03
2017-03-13T05:10:45.378Z,2.98
2017-03-13T05:11:25.972Z,3
2017-03-13T05:12:06.555Z,3.05
2017-03-13T05:12:47.141Z,2.98
2017-03-13T05:13:27.746Z,2.98
2017-03-13T05:14:08.317Z,3
2017-03-13T05:14:48.891Z,3
2017-03-13T05:15:29.468Z,3
2017-03-13T05:16:10.083Z,3.04
2017-03-13T05:16:50.630Z,2.97
2017-03-13T05:17:31.254Z,2.98
2017-03-13T05:18:11.849Z,3.04
2017-03-13T05:18:52.467Z,3
2017-03-13T05:19:33.080Z,3.05
2017-03-13T05:20:13.652Z,3.04
2017-03-13T05:20:54.241Z,3.07
2017-03-13T05:21:36.604Z,3.05
2017-03-13T05:22:17.181Z,3.1
2017-03-13T05:22:57.758Z,3.03
2017-03-13T05:23:38.320Z,3.08
2017-03-13T05:24:18.919Z,3.05
2017-03-13T05:24:59.474Z,3.05
2017-03-13T05:25:40.071Z,3.1
2017-03-13T05:26:20.657Z,3.05
2017-03-13T05:27:01.255Z,3.03
2017-03-13T05:27:41.840Z,3.1
2017-03-13T05:28:22.434Z,3.1
2017-03-13T05:29:03.031Z,3.05
2017-03-13T05:29:43.604Z,3.05
2017-03-13T05:30:24.180Z,3.08
2017-03-13T05:31:05.371Z,3.07
2017-03-13T05:31:45.947Z,3.13
2017-03-13T05:32:26.516Z,3.04
2017-03-13T05:33:07.131Z,3.04
2017-03-13T05:33:47.710Z,3.04
2017-03-13T05:34:28.281Z,3.01
2017-03-13T05:35:08.858Z,3.13
2017-03-13T05:35:49.429Z,3.05
2017-03-13T05:36:30.014Z,3.1
2017-03-13T05:37:10.579Z,3.08
2017-03-13T05:37:51.159Z,3.03
2017-03-13T05:38:31.765Z,3.07
2017-03-13T05:39:12.362Z,3.1
2017-03-13T05:39:52.958Z,3.07
2017-03-13T05:40:33.569Z,3.1
2017-03-13T05:41:14.140Z,3.1
2017-03-13T05:41:54.791Z,3.08
2017-03-13T05:42:35.368Z,3.05
2017-03-13T05:43:15.976Z,3.04
2017-03-13T05:43:56.550Z,3.1
2017-03-13T05:44:37.150Z,3.08
2017-03-13T05:45:17.735Z,3.05
2017-03-13T05:45:58.320Z,3.03
2017-03-13T05:46:38.905Z,3.08
2017-03-13T05:47:19.509Z,3.1
2017-03-13T05:48:00.102Z,3.05
2017-03-13T05:48:40.693Z,3.03
2017-03-13T05:49:21.275Z,3.04
2017-03-13T05:50:01.855Z,3.04
2017-03-13T05:50:42.447Z,3.1
2017-03-13T05:51:23.037Z,3.16
2017-03-13T05:52:03.608Z,3.05
2017-03-13T05:52:44.197Z,3.11
2017-03-13T05:53:24.773Z,3.05
2017-03-13T05:54:05.361Z,3.11
2017-03-13T05:54:45.959Z,3.11
2017-03-13T05:55:26.548Z,3.14
2017-03-13T05:59:11.555Z,3.29
2017-03-13T05:59:52.155Z,3.31
2017-03-13T06:00:32.763Z,3.32
2017-03-13T06:01:13.374Z,3.34
2017-03-13T06:01:53.961Z,3.34
2017-03-13T06:02:34.580Z,3.21
2017-03-13T06:03:15.169Z,3.28
2017-03-13T06:03:55.765Z,3.26
2017-03-13T06:04:36.344Z,3.22
2017-03-13T06:05:16.979Z,3.19
2017-03-13T06:05:57.539Z,3.14
2017-03-13T06:06:38.153Z,3.21
2017-03-13T06:07:18.741Z,3.22
2017-03-13T06:07:59.304Z,3.23
2017-03-13T06:08:39.896Z,3.05
2017-03-13T06:09:20.457Z,3.16
2017-03-13T06:10:01.044Z,3.19
2017-03-13T06:10:41.661Z,3.11
2017-03-13T06:11:22.253Z,3.07
2017-03-13T06:12:02.879Z,3.01
2017-03-13T06:12:43.490Z,3.13
2017-03-13T06:13:24.064Z,3.04
2017-03-13T06:14:04.643Z,3.01
2017-03-13T06:14:45.213Z,3.13
2017-03-13T06:15:25.823Z,3.14
2017-03-13T06:16:06.399Z,3.04
2017-03-13T06:16:46.972Z,3.16
2017-03-13T06:17:27.540Z,3.1
2017-03-13T06:18:08.130Z,3.16
2017-03-13T06:18:48.717Z,3.22
2017-03-13T06:19:29.325Z,3.26
2017-03-13T06:20:09.903Z,3.22
2017-03-13T06:20:50.532Z,3.19
2017-03-13T06:21:31.100Z,3.25
2017-03-13T06:22:11.706Z,3.26
2017-03-13T06:22:52.300Z,3.32
2017-03-13T06:23:32.873Z,3.14
2017-03-13T06:24:13.454Z,3.28
2017-03-13T06:24:54.048Z,3.23
2017-03-13T06:25:34.633Z,3.25
2017-03-13T06:26:15.227Z,3.22
2017-03-13T06:26:55.810Z,3.25
2017-03-13T06:27:36.390Z,3.19
2017-03-13T06:28:16.996Z,3.23
2017-03-13T06:28:57.606Z,3.25
2017-03-13T06:29:38.188Z,3.31
2017-03-13T06:30:18.802Z,3.29
2017-03-13T06:30:59.412Z,3.22
2017-03-13T06:31:39.991Z,3.32
2017-03-13T06:32:20.653Z,3.32
2017-03-13T06:33:01.243Z,3.32
2017-03-13T06:33:41.911Z,3.37
2017-03-13T06:34:22.475Z,3.36
2017-03-13T06:35:03.084Z,3.42
2017-03-13T06:35:43.672Z,3.42
2017-03-13T06:36:24.354Z,3.41
2017-03-13T06:37:04.929Z,3.31
2017-03-13T06:37:45.581Z,3.37
2017-03-13T06:38:26.147Z,3.32
2017-03-13T06:39:06.774Z,3.37
2017-03-13T06:39:47.396Z,3.42
2017-03-13T06:40:28.026Z,3.44
2017-03-13T06:41:08.613Z,3.44
2017-03-13T06:41:49.203Z,3.45
2017-03-13T06:42:29.786Z,3.56
2017-03-13T06:43:10.376Z,3.47
2017-03-13T06:43:50.945Z,3.62
2017-03-13T06:44:31.536Z,3.74
2017-03-13T06:45:12.152Z,3.91
2017-03-13T06:45:52.761Z,4.17
2017-03-13T06:46:33.438Z,4.4
2017-03-13T06:47:14.021Z,4.6
2017-03-13T06:47:54.606Z,4.73
2017-03-13T06:48:35.195Z,4.9
2017-03-13T06:49:15.767Z,5.15
2017-03-13T06:49:56.338Z,5.3
2017-03-13T06:50:36.933Z,5.26
2017-03-13T06:51:17.507Z,5.2
2017-03-13T06:51:58.088Z,5.12
2017-03-13T06:52:38.649Z,5.05
2017-03-13T06:53:19.290Z,4.96
2017-03-13T06:53:59.886Z,4.74
2017-03-13T06:54:40.473Z,4.71
2017-03-13T06:55:21.106Z,4.63
2017-03-13T06:56:01.721Z,4.6
2017-03-13T06:56:42.302Z,4.53
2017-03-13T06:57:22.924Z,4.52
2017-03-13T06:58:03.866Z,4.48
2017-03-13T06:58:44.514Z,4.42
2017-03-13T06:59:25.077Z,4.35
2017-03-13T07:00:05.688Z,4.32
2017-03-13T07:00:46.263Z,4.22
2017-03-13T07:01:26.834Z,4.24
2017-03-13T07:02:07.414Z,4.24
2017-03-13T07:02:48.025Z,4.22
2017-03-13T07:03:28.609Z,4.16
2017-03-13T07:04:09.232Z,4.12
2017-03-13T07:04:49.813Z,4.08
2017-03-13T07:05:30.495Z,4.04
2017-03-13T07:06:11.083Z,4.1
2017-03-13T07:06:51.697Z,4.13
2017-03-13T07:07:32.318Z,4.06
2017-03-13T07:08:12.895Z,4.06
2017-03-13T07:08:53.598Z,4.13
2017-03-13T07:09:34.169Z,4.06
2017-03-13T07:10:14.759Z,4.1
2017-03-13T07:10:55.786Z,4.06
2017-03-13T07:11:36.364Z,4.13
2017-03-13T07:12:16.983Z,4.13
2017-03-13T07:12:57.548Z,4.13
2017-03-13T07:13:38.137Z,4.16
2017-03-13T07:14:18.738Z,4.06
2017-03-13T07:14:59.425Z,4.08
2017-03-13T07:15:40.036Z,4.12
2017-03-13T07:16:20.680Z,4.1
2017-03-13T07:17:01.256Z,4.16
2017-03-13T07:17:41.846Z,4.1
2017-03-13T07:18:22.439Z,4.08
2017-03-13T07:19:03.065Z,4.08
2017-03-13T07:19:43.664Z,4.06
2017-03-13T07:20:24.298Z,4.23
2017-03-13T07:21:04.911Z,4.17
2017-03-13T07:21:45.549Z,4.17
2017-03-13T07:22:26.129Z,4.2
2017-03-13T07:23:06.738Z,4.14
2017-03-13T07:23:47.323Z,4.2
2017-03-13T07:24:27.912Z,4.17
2017-03-13T07:25:08.494Z,4.06
2017-03-13T07:25:49.114Z,4.14
2017-03-13T07:26:29.673Z,4.08
2017-03-13T07:27:10.304Z,4.1
2017-03-13T07:27:50.896Z,4.16
2017-03-13T07:28:31.474Z,4.23
2017-03-13T07:29:12.080Z,4.24
2017-03-13T07:29:52.683Z,4.35
2017-03-13T07:30:33.283Z,4.41
2017-03-13T07:31:13.896Z,4.48
2017-03-13T07:31:54.499Z,4.42
2017-03-13T07:32:35.090Z,4.42
2017-03-13T07:33:15.667Z,4.49
2017-03-13T07:33:56.260Z,4.68
2017-03-13T07:34:36.841Z,4.77
2017-03-13T07:35:17.490Z,4.77
2017-03-13T07:35:58.096Z,4.94
2017-03-13T07:36:38.671Z,5.02
2017-03-13T07:37:19.284Z,5.15
2017-03-13T07:37:59.907Z,5.23
2017-03-13T07:38:40.523Z,5.33
2017-03-13T07:39:21.098Z,5.51
2017-03-13T07:40:01.721Z,5.62
2017-03-13T07:40:42.337Z,5.66
2017-03-13T07:41:22.976Z,5.68
2017-03-13T07:42:03.593Z,5.69
2017-03-13T07:42:44.185Z,5.68
2017-03-13T07:43:24.772Z,5.84
2017-03-13T07:44:05.368Z,5.91
2017-03-13T07:44:45.953Z,5.98
2017-03-13T07:45:26.541Z,5.99
2017-03-13T07:46:07.124Z,6.16
2017-03-13T07:46:47.710Z,6.19
2017-03-13T07:47:28.291Z,6.27
2017-03-13T07:48:08.905Z,6.24
2017-03-13T07:48:49.465Z,6.39
2017-03-13T07:49:30.054Z,6.46
2017-03-13T07:50:10.643Z,6.48
2017-03-13T07:50:51.290Z,6.56
2017-03-13T07:51:31.880Z,6.62
2017-03-13T07:52:12.509Z,6.64
2017-03-13T07:52:53.137Z,6.69
2017-03-13T07:53:33.729Z,6.64
2017-03-13T07:54:14.325Z,6.69
2017-03-13T07:54:54.894Z,6.74
2017-03-13T07:55:35.488Z,6.67
2017-03-13T07:56:16.102Z,6.75
2017-03-13T07:56:56.696Z,6.59
2017-03-13T07:57:37.290Z,6.6
2017-03-13T07:58:17.877Z,6.64
2017-03-13T07:58:58.471Z,6.64
2017-03-13T07:59:39.075Z,6.69
2017-03-13T08:00:19.706Z,6.84
2017-03-13T08:01:00.279Z,6.87
2017-03-13T08:01:40.859Z,6.79
2017-03-13T08:02:21.445Z,6.79
2017-03-13T08:03:02.027Z,6.69
2017-03-13T08:03:42.606Z,6.69
2017-03-13T08:04:24.062Z,6.67
2017-03-13T08:05:04.636Z,6.69
2017-03-13T08:05:45.199Z,6.81
2017-03-13T08:06:25.784Z,6.85
2017-03-13T08:07:06.349Z,6.88
2017-03-13T08:07:46.946Z,6.93
2017-03-13T08:08:27.526Z,6.69
2017-03-13T08:09:08.110Z,6.67
2017-03-13T08:09:48.683Z,6.63
2017-03-13T08:10:29.315Z,6.7
2017-03-13T08:11:09.911Z,6.74
2017-03-13T08:11:50.499Z,6.85
2017-03-13T08:12:31.103Z,6.87
2017-03-13T08:13:11.700Z,6.92
2017-03-13T08:13:52.300Z,7.06
2017-03-13T08:14:32.914Z,7
2017-03-13T08:15:13.517Z,6.95
2017-03-13T08:15:54.121Z,6.85
2017-03-13T08:16:34.723Z,6.77
2017-03-13T08:17:15.323Z,6.81
2017-03-13T08:17:55.935Z,6.77
2017-03-13T08:18:36.540Z,6.7
2017-03-13T08:19:17.138Z,6.63
2017-03-13T08:19:57.715Z,6.64
2017-03-13T08:20:38.302Z,6.57
2017-03-13T08:21:18.910Z,6.66
2017-03-13T08:21:59.490Z,6.57
2017-03-13T08:22:40.058Z,6.62
2017-03-13T08:23:20.652Z,6.54
2017-03-13T08:24:01.263Z,6.52
2017-03-13T08:24:42.538Z,6.42
2017-03-13T08:25:23.123Z,6.36
2017-03-13T08:26:03.723Z,6.31
2017-03-13T08:26:44.309Z,6.17
2017-03-13T08:27:24.886Z,6.2
2017-03-13T08:28:05.462Z,6.11
2017-03-13T08:28:46.032Z,6.16
2017-03-13T08:29:26.616Z,6.11
2017-03-13T08:30:07.234Z,6.12
2017-03-13T08:30:47.834Z,6.11
2017-03-13T08:31:28.417Z,5.99
2017-03-13T08:32:09.020Z,6.09
2017-03-13T08:32:49.609Z,6.04
2017-03-13T08:33:30.193Z,5.98
2017-03-13T08:34:10.778Z,5.98
2017-03-13T08:34:51.362Z,6.05
2017-03-13T08:35:32.013Z,5.98
2017-03-13T08:36:12.613Z,6.07
2017-03-13T08:36:53.188Z,6.09
2017-03-13T08:37:33.795Z,6.05
2017-03-13T08:38:14.393Z,6.04
2017-03-13T08:38:54.988Z,6.01
2017-03-13T08:39:35.583Z,5.97
2017-03-13T08:40:16.171Z,5.91
2017-03-13T08:40:56.743Z,5.84
2017-03-13T08:41:37.337Z,5.93
2017-03-13T08:42:17.929Z,5.75
2017-03-13T08:42:58.519Z,5.84
2017-03-13T08:43:39.137Z,5.82
2017-03-13T08:44:19.723Z,5.86
2017-03-13T08:45:00.315Z,5.83
2017-03-13T08:45:40.889Z,5.82
2017-03-13T08:46:21.497Z,5.83
2017-03-13T08:47:02.063Z,5.84
2017-03-13T08:47:42.648Z,5.83
2017-03-13T08:48:23.220Z,5.79
2017-03-13T08:49:03.813Z,5.86
2017-03-13T08:49:44.404Z,5.93
2017-03-13T08:50:25.045Z,5.91
2017-03-13T08:51:05.631Z,5.93
2017-03-13T08:51:46.220Z,5.9
2017-03-13T08:52:26.815Z,5.91
2017-03-13T08:53:07.419Z,5.9
2017-03-13T08:53:48.061Z,5.98
2017-03-13T08:54:28.626Z,6.05
2017-03-13T08:55:09.216Z,5.98
2017-03-13T08:55:49.801Z,6.04
2017-03-13T08:56:30.413Z,6.07
2017-03-13T08:57:11.032Z,6.05
2017-03-13T08:57:51.672Z,6.2
2017-03-13T08:58:32.294Z,6.19
2017-03-13T08:59:12.880Z,6.07
2017-03-13T08:59:53.498Z,6.11
2017-03-13T09:00:34.106Z,6.12
2017-03-13T09:01:14.677Z,6.26
2017-03-13T09:01:55.262Z,6.22
2017-03-13T09:02:35.836Z,6.35
2017-03-13T09:03:16.462Z,6.36
2017-03-13T09:03:57.047Z,6.41
2017-03-13T09:04:37.626Z,6.51
2017-03-13T09:05:18.217Z,6.48
2017-03-13T09:05:58.839Z,6.6